sensor_id;sensor_type;location;lat;lon;timestamp;P1;durP1;ratioP1;P2;durP2;ratioP2
68987;SDS011;56038;46.080;11.116;2022-10-31T00:03:10;8.90;;;5.53;;
68987;SDS011;56038;46.080;11.116;2022-10-31T00:08:12;9.95;;;5.57;;
68987;SDS011;56038;46.080;11.116;2022-10-31T00:13:14;11.38;;;5.45;;
68987;SDS011;56038;46.080;11.116;2022-10-31T00:18:17;9.52;;;4.90;;
68987;SDS011;56038;46.080;11.116;2022-10-31T00:23:19;9.55;;;5.05;;
68987;SDS011;56038;46.080;11.116;2022-10-31T00:28:21;14.82;;;5.75;;
68987;SDS011;56038;46.080;11.116;2022-10-31T00:33:24;11.27;;;5.00;;
68987;SDS011;56038;46.080;11.116;2022-10-31T00:38:26;8.68;;;4.90;;
68987;SDS011;56038;46.080;11.116;2022-10-31T00:43:27;11.65;;;4.90;;
68987;SDS011;56038;46.080;11.116;2022-10-31T00:48:31;11.35;;;5.13;;
68987;SDS011;56038;46.080;11.116;2022-10-31T00:53:32;12.82;;;5.30;;
68987;SDS011;56038;46.080;11.116;2022-10-31T00:58:34;9.05;;;4.97;;
68987;SDS011;56038;46.080;11.116;2022-10-31T01:03:37;12.73;;;5.25;;
68987;SDS011;56038;46.080;11.116;2022-10-31T01:08:40;10.23;;;5.70;;
68987;SDS011;56038;46.080;11.116;2022-10-31T01:13:42;10.15;;;4.82;;
68987;SDS011;56038;46.080;11.116;2022-10-31T01:18:46;8.02;;;5.20;;
68987;SDS011;56038;46.080;11.116;2022-10-31T01:23:47;11.23;;;5.20;;
68987;SDS011;56038;46.080;11.116;2022-10-31T01:28:50;10.63;;;5.13;;
68987;SDS011;56038;46.080;11.116;2022-10-31T01:33:54;10.85;;;5.30;;
68987;SDS011;56038;46.080;11.116;2022-10-31T01:38:57;11.38;;;4.82;;
68987;SDS011;56038;46.080;11.116;2022-10-31T01:44:02;11.63;;;4.78;;
68987;SDS011;56038;46.080;11.116;2022-10-31T01:49:27;12.20;;;4.70;;
68987;SDS011;56038;46.080;11.116;2022-10-31T01:54:35;13.52;;;4.85;;
68987;SDS011;56038;46.080;11.116;2022-10-31T02:04:45;11.55;;;4.57;;
68987;SDS011;56038;46.080;11.116;2022-10-31T02:09:48;12.95;;;4.90;;
68987;SDS011;56038;46.080;11.116;2022-10-31T02:14:51;13.38;;;4.82;;
68987;SDS011;56038;46.080;11.116;2022-10-31T02:19:56;9.30;;;4.50;;
68987;SDS011;56038;46.080;11.116;2022-10-31T02:25:10;7.47;;;4.45;;
68987;SDS011;56038;46.080;11.116;2022-10-31T02:30:27;9.93;;;4.32;;
68987;SDS011;56038;46.080;11.116;2022-10-31T02:35:40;11.85;;;4.45;;
68987;SDS011;56038;46.080;11.116;2022-10-31T02:40:57;9.75;;;4.60;;
68987;SDS011;56038;46.080;11.116;2022-10-31T02:46:06;7.45;;;4.70;;
68987;SDS011;56038;46.080;11.116;2022-10-31T02:51:13;11.43;;;4.88;;
68987;SDS011;56038;46.080;11.116;2022-10-31T02:56:17;5.40;;;4.40;;
68987;SDS011;56038;46.080;11.116;2022-10-31T03:01:24;12.13;;;4.57;;
68987;SDS011;56038;46.080;11.116;2022-10-31T03:06:49;7.67;;;4.63;;
68987;SDS011;56038;46.080;11.116;2022-10-31T03:11:57;10.73;;;4.20;;
68987;SDS011;56038;46.080;11.116;2022-10-31T03:17:05;8.15;;;4.53;;
68987;SDS011;56038;46.080;11.116;2022-10-31T03:22:12;8.13;;;4.45;;
68987;SDS011;56038;46.080;11.116;2022-10-31T03:27:18;7.82;;;4.50;;
68987;SDS011;56038;46.080;11.116;2022-10-31T03:32:23;8.27;;;4.75;;
68987;SDS011;56038;46.080;11.116;2022-10-31T03:37:32;10.23;;;4.60;;
68987;SDS011;56038;46.080;11.116;2022-10-31T03:42:37;11.65;;;4.60;;
68987;SDS011;56038;46.080;11.116;2022-10-31T03:47:42;14.45;;;5.10;;
68987;SDS011;56038;46.080;11.116;2022-10-31T03:52:48;11.32;;;4.85;;
68987;SDS011;56038;46.080;11.116;2022-10-31T03:57:53;13.80;;;4.63;;
68987;SDS011;56038;46.080;11.116;2022-10-31T04:03:00;11.38;;;5.13;;
68987;SDS011;56038;46.080;11.116;2022-10-31T04:08:09;7.88;;;4.43;;
68987;SDS011;56038;46.080;11.116;2022-10-31T04:13:14;14.80;;;5.10;;
68987;SDS011;56038;46.080;11.116;2022-10-31T04:18:21;11.65;;;4.90;;
68987;SDS011;56038;46.080;11.116;2022-10-31T04:23:25;10.75;;;3.95;;
68987;SDS011;56038;46.080;11.116;2022-10-31T04:28:27;12.07;;;5.03;;
68987;SDS011;56038;46.080;11.116;2022-10-31T04:33:29;13.20;;;4.45;;
68987;SDS011;56038;46.080;11.116;2022-10-31T04:38:32;8.68;;;4.40;;
68987;SDS011;56038;46.080;11.116;2022-10-31T04:43:34;9.82;;;5.00;;
68987;SDS011;56038;46.080;11.116;2022-10-31T04:48:36;6.82;;;4.43;;
68987;SDS011;56038;46.080;11.116;2022-10-31T04:53:39;8.65;;;4.43;;
68987;SDS011;56038;46.080;11.116;2022-10-31T04:58:41;11.90;;;4.18;;
68987;SDS011;56038;46.080;11.116;2022-10-31T05:03:42;12.45;;;4.72;;
68987;SDS011;56038;46.080;11.116;2022-10-31T05:08:45;10.52;;;4.65;;
68987;SDS011;56038;46.080;11.116;2022-10-31T05:13:47;10.32;;;4.68;;
68987;SDS011;56038;46.080;11.116;2022-10-31T05:18:49;13.75;;;4.35;;
68987;SDS011;56038;46.080;11.116;2022-10-31T05:23:52;7.82;;;4.50;;
68987;SDS011;56038;46.080;11.116;2022-10-31T05:28:54;12.18;;;4.78;;
68987;SDS011;56038;46.080;11.116;2022-10-31T05:33:56;12.05;;;4.60;;
68987;SDS011;56038;46.080;11.116;2022-10-31T05:38:59;11.25;;;4.50;;
68987;SDS011;56038;46.080;11.116;2022-10-31T05:44:01;12.45;;;4.65;;
68987;SDS011;56038;46.080;11.116;2022-10-31T05:49:02;10.77;;;4.38;;
68987;SDS011;56038;46.080;11.116;2022-10-31T05:54:06;13.18;;;4.32;;
68987;SDS011;56038;46.080;11.116;2022-10-31T05:59:07;9.68;;;4.22;;
68987;SDS011;56038;46.080;11.116;2022-10-31T06:04:09;10.55;;;5.80;;
68987;SDS011;56038;46.080;11.116;2022-10-31T06:09:12;10.02;;;4.50;;
68987;SDS011;56038;46.080;11.116;2022-10-31T06:14:14;12.82;;;4.97;;
68987;SDS011;56038;46.080;11.116;2022-10-31T06:19:16;8.30;;;4.50;;
68987;SDS011;56038;46.080;11.116;2022-10-31T06:24:19;12.55;;;4.93;;
68987;SDS011;56038;46.080;11.116;2022-10-31T06:29:20;10.75;;;4.65;;
68987;SDS011;56038;46.080;11.116;2022-10-31T06:34:22;12.00;;;5.30;;
68987;SDS011;56038;46.080;11.116;2022-10-31T06:39:25;7.60;;;4.50;;
68987;SDS011;56038;46.080;11.116;2022-10-31T06:44:27;9.38;;;4.88;;
68987;SDS011;56038;46.080;11.116;2022-10-31T06:49:29;9.90;;;4.65;;
68987;SDS011;56038;46.080;11.116;2022-10-31T06:54:32;10.00;;;4.60;;
68987;SDS011;56038;46.080;11.116;2022-10-31T06:59:34;49.30;;;9.50;;
68987;SDS011;56038;46.080;11.116;2022-10-31T07:04:36;6.55;;;4.82;;
68987;SDS011;56038;46.080;11.116;2022-10-31T07:09:39;12.63;;;4.55;;
68987;SDS011;56038;46.080;11.116;2022-10-31T07:14:41;9.73;;;4.68;;
68987;SDS011;56038;46.080;11.116;2022-10-31T07:19:42;23.38;;;13.05;;
68987;SDS011;56038;46.080;11.116;2022-10-31T07:24:46;9.85;;;5.13;;
68987;SDS011;56038;46.080;11.116;2022-10-31T07:29:47;14.13;;;4.20;;
68987;SDS011;56038;46.080;11.116;2022-10-31T07:34:49;9.52;;;3.92;;
68987;SDS011;56038;46.080;11.116;2022-10-31T07:39:52;13.57;;;4.50;;
68987;SDS011;56038;46.080;11.116;2022-10-31T07:44:54;22.55;;;6.38;;
68987;SDS011;56038;46.080;11.116;2022-10-31T07:49:56;10.30;;;4.22;;
68987;SDS011;56038;46.080;11.116;2022-10-31T07:54:59;8.27;;;4.03;;
68987;SDS011;56038;46.080;11.116;2022-10-31T08:00:01;9.00;;;4.50;;
68987;SDS011;56038;46.080;11.116;2022-10-31T08:05:03;8.45;;;4.47;;
68987;SDS011;56038;46.080;11.116;2022-10-31T08:10:07;11.35;;;4.85;;
68987;SDS011;56038;46.080;11.116;2022-10-31T08:15:09;9.57;;;4.03;;
68987;SDS011;56038;46.080;11.116;2022-10-31T08:20:11;10.90;;;4.43;;
68987;SDS011;56038;46.080;11.116;2022-10-31T08:25:14;15.35;;;5.65;;
68987;SDS011;56038;46.080;11.116;2022-10-31T08:30:16;14.32;;;4.95;;
68987;SDS011;56038;46.080;11.116;2022-10-31T08:35:18;8.90;;;4.10;;
68987;SDS011;56038;46.080;11.116;2022-10-31T08:40:21;9.43;;;4.22;;
68987;SDS011;56038;46.080;11.116;2022-10-31T08:45:24;8.73;;;4.30;;
68987;SDS011;56038;46.080;11.116;2022-10-31T08:50:26;14.05;;;4.65;;
68987;SDS011;56038;46.080;11.116;2022-10-31T08:55:30;8.70;;;3.90;;
68987;SDS011;56038;46.080;11.116;2022-10-31T09:00:34;11.13;;;4.13;;
68987;SDS011;56038;46.080;11.116;2022-10-31T09:05:36;13.05;;;4.28;;
68987;SDS011;56038;46.080;11.116;2022-10-31T09:10:40;18.40;;;4.65;;
68987;SDS011;56038;46.080;11.116;2022-10-31T09:15:43;8.90;;;3.97;;
68987;SDS011;56038;46.080;11.116;2022-10-31T09:20:47;7.97;;;3.60;;
68987;SDS011;56038;46.080;11.116;2022-10-31T09:25:52;10.85;;;3.90;;
68987;SDS011;56038;46.080;11.116;2022-10-31T09:30:54;15.82;;;7.15;;
68987;SDS011;56038;46.080;11.116;2022-10-31T09:35:57;10.55;;;4.22;;
68987;SDS011;56038;46.080;11.116;2022-10-31T09:41:04;8.73;;;3.95;;
68987;SDS011;56038;46.080;11.116;2022-10-31T09:46:15;8.60;;;3.13;;
68987;SDS011;56038;46.080;11.116;2022-10-31T09:51:28;10.30;;;3.60;;
68987;SDS011;56038;46.080;11.116;2022-10-31T09:56:35;13.05;;;3.35;;
68987;SDS011;56038;46.080;11.116;2022-10-31T10:01:41;7.40;;;2.88;;
68987;SDS011;56038;46.080;11.116;2022-10-31T10:06:48;10.27;;;3.53;;
68987;SDS011;56038;46.080;11.116;2022-10-31T10:12:00;10.35;;;3.95;;
68987;SDS011;56038;46.080;11.116;2022-10-31T10:17:12;8.35;;;3.10;;
68987;SDS011;56038;46.080;11.116;2022-10-31T10:22:24;11.65;;;4.13;;
68987;SDS011;56038;46.080;11.116;2022-10-31T10:27:37;13.40;;;3.40;;
68987;SDS011;56038;46.080;11.116;2022-10-31T10:32:49;8.48;;;3.60;;
68987;SDS011;56038;46.080;11.116;2022-10-31T10:37:54;7.85;;;3.40;;
68987;SDS011;56038;46.080;11.116;2022-10-31T10:48:26;9.18;;;3.50;;
68987;SDS011;56038;46.080;11.116;2022-10-31T10:53:38;12.93;;;3.97;;
68987;SDS011;56038;46.080;11.116;2022-10-31T10:59:02;13.82;;;3.33;;
68987;SDS011;56038;46.080;11.116;2022-10-31T11:04:05;9.37;;;3.00;;
68987;SDS011;56038;46.080;11.116;2022-10-31T11:09:23;9.45;;;3.72;;
68987;SDS011;56038;46.080;11.116;2022-10-31T11:14:26;10.10;;;3.50;;
68987;SDS011;56038;46.080;11.116;2022-10-31T11:19:29;11.73;;;3.40;;
68987;SDS011;56038;46.080;11.116;2022-10-31T11:24:35;8.98;;;3.42;;
68987;SDS011;56038;46.080;11.116;2022-10-31T11:29:42;10.50;;;3.03;;
68987;SDS011;56038;46.080;11.116;2022-10-31T11:34:44;6.53;;;3.30;;
68987;SDS011;56038;46.080;11.116;2022-10-31T11:39:50;9.82;;;3.55;;
68987;SDS011;56038;46.080;11.116;2022-10-31T11:44:58;9.55;;;3.20;;
68987;SDS011;56038;46.080;11.116;2022-10-31T11:50:02;7.53;;;3.15;;
68987;SDS011;56038;46.080;11.116;2022-10-31T11:55:15;10.13;;;3.78;;
68987;SDS011;56038;46.080;11.116;2022-10-31T12:00:22;6.47;;;3.38;;
68987;SDS011;56038;46.080;11.116;2022-10-31T12:05:26;7.40;;;3.00;;
68987;SDS011;56038;46.080;11.116;2022-10-31T12:10:31;8.73;;;3.25;;
68987;SDS011;56038;46.080;11.116;2022-10-31T12:15:44;6.45;;;2.97;;
68987;SDS011;56038;46.080;11.116;2022-10-31T12:21:03;5.88;;;2.70;;
68987;SDS011;56038;46.080;11.116;2022-10-31T12:26:22;8.43;;;4.43;;
68987;SDS011;56038;46.080;11.116;2022-10-31T12:31:35;11.13;;;3.50;;
68987;SDS011;56038;46.080;11.116;2022-10-31T12:36:47;13.10;;;4.00;;
68987;SDS011;56038;46.080;11.116;2022-10-31T12:41:58;12.48;;;4.75;;
68987;SDS011;56038;46.080;11.116;2022-10-31T12:47:17;8.52;;;2.97;;
68987;SDS011;56038;46.080;11.116;2022-10-31T12:52:40;5.95;;;2.83;;
68987;SDS011;56038;46.080;11.116;2022-10-31T12:57:53;9.80;;;3.30;;
68987;SDS011;56038;46.080;11.116;2022-10-31T13:03:03;8.00;;;2.90;;
68987;SDS011;56038;46.080;11.116;2022-10-31T13:08:14;11.80;;;3.35;;
68987;SDS011;56038;46.080;11.116;2022-10-31T13:13:19;11.63;;;3.33;;
68987;SDS011;56038;46.080;11.116;2022-10-31T13:18:36;8.40;;;3.40;;
68987;SDS011;56038;46.080;11.116;2022-10-31T13:23:41;13.48;;;3.10;;
68987;SDS011;56038;46.080;11.116;2022-10-31T13:28:47;11.68;;;3.30;;
68987;SDS011;56038;46.080;11.116;2022-10-31T13:33:55;6.47;;;2.35;;
68987;SDS011;56038;46.080;11.116;2022-10-31T13:39:03;10.45;;;3.70;;
68987;SDS011;56038;46.080;11.116;2022-10-31T13:44:22;8.75;;;3.47;;
68987;SDS011;56038;46.080;11.116;2022-10-31T13:49:36;9.05;;;3.28;;
68987;SDS011;56038;46.080;11.116;2022-10-31T13:54:40;9.45;;;3.58;;
68987;SDS011;56038;46.080;11.116;2022-10-31T13:59:46;9.43;;;3.13;;
68987;SDS011;56038;46.080;11.116;2022-10-31T14:04:52;9.88;;;3.47;;
68987;SDS011;56038;46.080;11.116;2022-10-31T14:10:21;10.07;;;3.30;;
68987;SDS011;56038;46.080;11.116;2022-10-31T14:15:27;8.93;;;3.33;;
68987;SDS011;56038;46.080;11.116;2022-10-31T14:20:36;8.63;;;2.70;;
68987;SDS011;56038;46.080;11.116;2022-10-31T14:25:39;9.77;;;3.38;;
68987;SDS011;56038;46.080;11.116;2022-10-31T14:30:50;10.02;;;3.30;;
68987;SDS011;56038;46.080;11.116;2022-10-31T14:35:56;11.38;;;3.28;;
68987;SDS011;56038;46.080;11.116;2022-10-31T14:41:07;8.60;;;3.53;;
68987;SDS011;56038;46.080;11.116;2022-10-31T14:46:30;12.30;;;4.03;;
68987;SDS011;56038;46.080;11.116;2022-10-31T14:51:44;9.73;;;3.80;;
68987;SDS011;56038;46.080;11.116;2022-10-31T14:56:49;10.07;;;4.18;;
68987;SDS011;56038;46.080;11.116;2022-10-31T15:01:58;9.30;;;3.90;;
68987;SDS011;56038;46.080;11.116;2022-10-31T15:07:04;11.93;;;4.13;;
68987;SDS011;56038;46.080;11.116;2022-10-31T15:12:22;17.42;;;4.35;;
68987;SDS011;56038;46.080;11.116;2022-10-31T15:17:26;8.23;;;3.85;;
68987;SDS011;56038;46.080;11.116;2022-10-31T15:22:29;12.45;;;4.93;;
68987;SDS011;56038;46.080;11.116;2022-10-31T15:27:32;14.23;;;4.65;;
68987;SDS011;56038;46.080;11.116;2022-10-31T15:32:35;7.65;;;4.20;;
68987;SDS011;56038;46.080;11.116;2022-10-31T15:37:38;13.43;;;4.53;;
68987;SDS011;56038;46.080;11.116;2022-10-31T15:42:40;14.70;;;5.47;;
68987;SDS011;56038;46.080;11.116;2022-10-31T15:47:44;15.98;;;4.97;;
68987;SDS011;56038;46.080;11.116;2022-10-31T15:57:51;8.20;;;4.00;;
68987;SDS011;56038;46.080;11.116;2022-10-31T16:13:34;11.85;;;4.47;;
68987;SDS011;56038;46.080;11.116;2022-10-31T16:18:38;12.30;;;4.38;;
68987;SDS011;56038;46.080;11.116;2022-10-31T16:23:44;10.80;;;4.43;;
68987;SDS011;56038;46.080;11.116;2022-10-31T16:28:52;9.85;;;4.50;;
68987;SDS011;56038;46.080;11.116;2022-10-31T16:34:01;11.35;;;4.10;;
68987;SDS011;56038;46.080;11.116;2022-10-31T16:39:05;8.77;;;3.88;;
68987;SDS011;56038;46.080;11.116;2022-10-31T16:44:15;15.95;;;4.53;;
68987;SDS011;56038;46.080;11.116;2022-10-31T16:49:19;9.70;;;4.47;;
68987;SDS011;56038;46.080;11.116;2022-10-31T16:54:21;8.20;;;3.65;;
68987;SDS011;56038;46.080;11.116;2022-10-31T16:59:24;12.40;;;4.30;;
68987;SDS011;56038;46.080;11.116;2022-10-31T17:04:27;10.75;;;4.18;;
68987;SDS011;56038;46.080;11.116;2022-10-31T17:09:41;11.32;;;3.60;;
68987;SDS011;56038;46.080;11.116;2022-10-31T17:14:44;10.68;;;4.28;;
68987;SDS011;56038;46.080;11.116;2022-10-31T17:19:50;12.27;;;4.93;;
68987;SDS011;56038;46.080;11.116;2022-10-31T17:24:51;15.40;;;7.45;;
68987;SDS011;56038;46.080;11.116;2022-10-31T17:29:55;11.43;;;5.85;;
68987;SDS011;56038;46.080;11.116;2022-10-31T17:34:56;17.77;;;7.45;;
68987;SDS011;56038;46.080;11.116;2022-10-31T17:39:58;13.48;;;6.53;;
68987;SDS011;56038;46.080;11.116;2022-10-31T17:45:02;13.88;;;6.30;;
68987;SDS011;56038;46.080;11.116;2022-10-31T17:50:04;16.17;;;7.03;;
68987;SDS011;56038;46.080;11.116;2022-10-31T17:55:07;9.15;;;5.13;;
68987;SDS011;56038;46.080;11.116;2022-10-31T18:00:12;9.50;;;5.25;;
68987;SDS011;56038;46.080;11.116;2022-10-31T18:05:16;14.40;;;5.88;;
68987;SDS011;56038;46.080;11.116;2022-10-31T18:10:19;12.77;;;5.55;;
68987;SDS011;56038;46.080;11.116;2022-10-31T18:15:22;15.35;;;5.53;;
68987;SDS011;56038;46.080;11.116;2022-10-31T18:20:24;13.10;;;5.82;;
68987;SDS011;56038;46.080;11.116;2022-10-31T18:25:26;10.88;;;6.35;;
68987;SDS011;56038;46.080;11.116;2022-10-31T18:30:29;15.00;;;6.80;;
68987;SDS011;56038;46.080;11.116;2022-10-31T18:35:31;9.43;;;5.88;;
68987;SDS011;56038;46.080;11.116;2022-10-31T18:40:35;14.30;;;5.95;;
68987;SDS011;56038;46.080;11.116;2022-10-31T18:45:38;11.68;;;5.80;;
68987;SDS011;56038;46.080;11.116;2022-10-31T18:50:40;17.20;;;7.32;;
68987;SDS011;56038;46.080;11.116;2022-10-31T18:55:42;14.77;;;8.13;;
68987;SDS011;56038;46.080;11.116;2022-10-31T19:00:45;18.75;;;9.65;;
68987;SDS011;56038;46.080;11.116;2022-10-31T19:05:47;17.58;;;8.75;;
68987;SDS011;56038;46.080;11.116;2022-10-31T19:10:49;14.98;;;6.78;;
68987;SDS011;56038;46.080;11.116;2022-10-31T19:15:52;12.90;;;7.72;;
68987;SDS011;56038;46.080;11.116;2022-10-31T19:20:54;15.48;;;7.35;;
68987;SDS011;56038;46.080;11.116;2022-10-31T19:25:56;17.58;;;9.40;;
68987;SDS011;56038;46.080;11.116;2022-10-31T19:31:00;14.20;;;8.80;;
68987;SDS011;56038;46.080;11.116;2022-10-31T19:36:03;14.52;;;9.05;;
68987;SDS011;56038;46.080;11.116;2022-10-31T19:41:08;18.90;;;9.87;;
68987;SDS011;56038;46.080;11.116;2022-10-31T19:46:12;16.98;;;8.75;;
68987;SDS011;56038;46.080;11.116;2022-10-31T19:51:16;17.33;;;10.32;;
68987;SDS011;56038;46.080;11.116;2022-10-31T19:56:20;19.25;;;10.10;;
68987;SDS011;56038;46.080;11.116;2022-10-31T20:01:24;18.05;;;9.88;;
68987;SDS011;56038;46.080;11.116;2022-10-31T20:06:27;19.90;;;11.60;;
68987;SDS011;56038;46.080;11.116;2022-10-31T20:11:31;15.93;;;10.75;;
68987;SDS011;56038;46.080;11.116;2022-10-31T20:16:34;15.75;;;9.07;;
68987;SDS011;56038;46.080;11.116;2022-10-31T20:21:36;18.10;;;10.02;;
68987;SDS011;56038;46.080;11.116;2022-10-31T20:26:39;15.65;;;10.07;;
68987;SDS011;56038;46.080;11.116;2022-10-31T20:31:43;16.48;;;8.63;;
68987;SDS011;56038;46.080;11.116;2022-10-31T20:36:46;14.82;;;7.90;;
68987;SDS011;56038;46.080;11.116;2022-10-31T20:41:48;15.30;;;8.55;;
68987;SDS011;56038;46.080;11.116;2022-10-31T20:46:51;16.98;;;8.48;;
68987;SDS011;56038;46.080;11.116;2022-10-31T20:51:53;14.10;;;8.27;;
68987;SDS011;56038;46.080;11.116;2022-10-31T20:56:55;12.73;;;8.35;;
68987;SDS011;56038;46.080;11.116;2022-10-31T21:01:58;10.13;;;8.43;;
68987;SDS011;56038;46.080;11.116;2022-10-31T21:07:00;18.00;;;9.35;;
68987;SDS011;56038;46.080;11.116;2022-10-31T21:12:02;17.25;;;10.30;;
68987;SDS011;56038;46.080;11.116;2022-10-31T21:17:05;16.38;;;9.68;;
68987;SDS011;56038;46.080;11.116;2022-10-31T21:22:07;16.20;;;8.10;;
68987;SDS011;56038;46.080;11.116;2022-10-31T21:27:09;18.90;;;9.23;;
68987;SDS011;56038;46.080;11.116;2022-10-31T21:32:12;21.77;;;8.90;;
68987;SDS011;56038;46.080;11.116;2022-10-31T21:37:14;16.50;;;8.63;;
68987;SDS011;56038;46.080;11.116;2022-10-31T21:42:16;14.55;;;8.32;;
68987;SDS011;56038;46.080;11.116;2022-10-31T21:47:19;14.80;;;9.18;;
68987;SDS011;56038;46.080;11.116;2022-10-31T21:52:21;22.88;;;10.90;;
68987;SDS011;56038;46.080;11.116;2022-10-31T21:57:23;14.77;;;9.55;;
68987;SDS011;56038;46.080;11.116;2022-10-31T22:02:26;13.35;;;8.82;;
68987;SDS011;56038;46.080;11.116;2022-10-31T22:07:28;15.80;;;8.50;;
68987;SDS011;56038;46.080;11.116;2022-10-31T22:12:29;17.77;;;9.23;;
68987;SDS011;56038;46.080;11.116;2022-10-31T22:17:33;17.08;;;8.63;;
68987;SDS011;56038;46.080;11.116;2022-10-31T22:22:34;14.63;;;9.00;;
68987;SDS011;56038;46.080;11.116;2022-10-31T22:27:36;9.13;;;8.10;;
68987;SDS011;56038;46.080;11.116;2022-10-31T22:32:39;16.73;;;9.40;;
68987;SDS011;56038;46.080;11.116;2022-10-31T22:37:41;13.10;;;8.75;;
68987;SDS011;56038;46.080;11.116;2022-10-31T22:42:43;13.75;;;8.27;;
68987;SDS011;56038;46.080;11.116;2022-10-31T22:47:46;13.75;;;8.30;;
68987;SDS011;56038;46.080;11.116;2022-10-31T22:52:48;13.43;;;8.10;;
68987;SDS011;56038;46.080;11.116;2022-10-31T22:57:49;15.40;;;7.63;;
68987;SDS011;56038;46.080;11.116;2022-10-31T23:02:53;17.27;;;8.05;;
68987;SDS011;56038;46.080;11.116;2022-10-31T23:07:54;12.30;;;8.68;;
68987;SDS011;56038;46.080;11.116;2022-10-31T23:12:56;13.07;;;7.97;;
68987;SDS011;56038;46.080;11.116;2022-10-31T23:18:16;14.48;;;7.90;;
68987;SDS011;56038;46.080;11.116;2022-10-31T23:23:18;14.63;;;7.47;;
68987;SDS011;56038;46.080;11.116;2022-10-31T23:28:21;13.77;;;7.40;;
68987;SDS011;56038;46.080;11.116;2022-10-31T23:33:24;15.88;;;7.43;;
68987;SDS011;56038;46.080;11.116;2022-10-31T23:38:25;15.73;;;7.50;;
68987;SDS011;56038;46.080;11.116;2022-10-31T23:43:27;11.82;;;6.85;;
68987;SDS011;56038;46.080;11.116;2022-10-31T23:48:30;12.63;;;7.03;;
68987;SDS011;56038;46.080;11.116;2022-10-31T23:53:32;8.68;;;6.72;;
68987;SDS011;56038;46.080;11.116;2022-10-31T23:58:34;15.07;;;7.55;;
